createdAt,value
2022-10-17T00:02:24.985Z,100.00
2022-10-17T00:05:53.280Z,100.00
2022-10-17T00:08:57.744Z,100.00
2022-10-17T00:12:02.814Z,100.00
2022-10-17T00:15:29.571Z,100.00
2022-10-17T00:18:31.522Z,100.00
2022-10-17T00:21:37.504Z,100.00
2022-10-17T00:24:39.451Z,100.00
2022-10-17T00:27:50.990Z,100.00
2022-10-17T00:31:05.861Z,100.00
2022-10-17T00:34:11.318Z,100.00
2022-10-17T00:37:20.444Z,100.00
2022-10-17T00:40:25.333Z,100.00
2022-10-17T00:43:33.480Z,100.00
2022-10-17T00:46:36.773Z,100.00
2022-10-17T00:49:39.324Z,100.00
2022-10-17T00:52:41.942Z,100.00
2022-10-17T00:55:53.885Z,100.00
2022-10-17T00:58:59.952Z,100.00
2022-10-17T01:02:07.220Z,100.00
2022-10-17T01:05:16.117Z,100.00
2022-10-17T01:08:28.626Z,100.00
2022-10-17T01:11:42.094Z,100.00
2022-10-17T01:15:09.081Z,100.00
2022-10-17T01:18:29.276Z,100.00
2022-10-17T01:21:52.683Z,100.00
2022-10-17T01:25:16.022Z,100.00
2022-10-17T01:28:36.787Z,100.00
2022-10-17T01:32:00.858Z,100.00
2022-10-17T01:35:19.525Z,100.00
2022-10-17T01:38:38.927Z,100.00
2022-10-17T01:41:47.427Z,100.00
2022-10-17T01:45:21.132Z,100.00
2022-10-17T01:48:30.385Z,100.00
2022-10-17T01:51:50.705Z,100.00
2022-10-17T01:55:27.240Z,100.00
2022-10-17T01:58:30.323Z,100.00
2022-10-17T02:01:33.745Z,100.00
2022-10-17T02:04:36.090Z,100.00
2022-10-17T02:07:44.950Z,100.00
2022-10-17T02:10:47.191Z,100.00
2022-10-17T02:14:10.218Z,100.00
2022-10-17T02:17:35.209Z,100.00
2022-10-17T02:20:56.567Z,100.00
2022-10-17T02:24:42.408Z,100.00
2022-10-17T02:27:54.454Z,100.00
2022-10-17T02:31:06.478Z,100.00
2022-10-17T02:34:19.497Z,100.00
2022-10-17T02:37:23.884Z,100.00
2022-10-17T02:40:27.746Z,100.00
2022-10-17T02:43:33.379Z,100.00
2022-10-17T02:46:47.225Z,100.00
2022-10-17T02:49:54.167Z,100.00
2022-10-17T02:52:59.603Z,100.00
2022-10-17T02:56:15.320Z,100.00
2022-10-17T02:59:20.491Z,100.00
2022-10-17T03:02:22.999Z,100.00
2022-10-17T03:05:34.437Z,100.00
2022-10-17T03:08:59.658Z,100.00
2022-10-17T03:12:11.965Z,100.00
2022-10-17T03:15:15.040Z,100.00
2022-10-17T03:18:25.219Z,100.00
2022-10-17T03:21:27.808Z,100.00
2022-10-17T03:31:15.534Z,100.00
2022-10-17T03:34:26.491Z,100.00
2022-10-17T03:37:35.338Z,100.00
2022-10-17T03:40:51.903Z,100.00
2022-10-17T03:44:03.584Z,100.00
2022-10-17T03:47:13.448Z,100.00
2022-10-17T03:50:20.838Z,100.00
2022-10-17T03:53:32.491Z,100.00
2022-10-17T03:56:44.999Z,100.00
2022-10-17T03:59:58.318Z,100.00
2022-10-17T04:03:00.454Z,100.00
2022-10-17T04:06:14.424Z,100.00
2022-10-17T04:09:17.949Z,100.00
2022-10-17T04:12:26.840Z,100.00
2022-10-17T04:15:30.059Z,100.00
2022-10-17T04:18:41.725Z,100.00
2022-10-17T04:21:51.164Z,100.00
2022-10-17T04:25:07.806Z,100.00
2022-10-17T04:28:15.534Z,100.00
2022-10-17T04:31:36.019Z,100.00
2022-10-17T04:38:02.029Z,100.00
2022-10-17T04:41:18.852Z,100.00
2022-10-17T04:44:21.010Z,100.00
2022-10-17T04:47:49.105Z,100.00
2022-10-17T04:51:08.039Z,100.00
2022-10-17T04:54:19.689Z,100.00
2022-10-17T04:57:34.165Z,100.00
2022-10-17T05:00:48.151Z,100.00
2022-10-17T05:03:54.399Z,100.00
2022-10-17T05:06:59.903Z,100.00
2022-10-17T05:10:02.004Z,100.00
2022-10-17T05:13:11.701Z,100.00
2022-10-17T05:16:16.113Z,100.00
2022-10-17T05:19:19.190Z,100.00
2022-10-17T05:26:12.830Z,100.00
2022-10-17T05:29:15.750Z,100.00
2022-10-17T05:32:32.220Z,100.00
2022-10-17T05:35:36.033Z,100.00
2022-10-17T05:38:39.351Z,100.00
2022-10-17T05:41:41.701Z,100.00
2022-10-17T05:44:49.228Z,100.00
2022-10-17T05:47:56.059Z,100.00
2022-10-17T05:51:13.876Z,100.00
2022-10-17T05:54:17.922Z,100.00
2022-10-17T05:57:20.344Z,100.00
2022-10-17T06:00:23.128Z,100.00
2022-10-17T06:03:35.108Z,100.00
2022-10-17T06:06:39.845Z,100.00
2022-10-17T06:10:07.433Z,100.00
2022-10-17T06:13:10.998Z,100.00
2022-10-17T06:16:13.322Z,100.00
2022-10-17T06:19:15.698Z,100.00
2022-10-17T06:22:28.641Z,100.00
2022-10-17T06:25:41.514Z,100.00
2022-10-17T06:28:57.312Z,100.00
2022-10-17T06:32:03.903Z,100.00
2022-10-17T06:35:13.051Z,100.00
2022-10-17T06:38:19.162Z,100.00
2022-10-17T06:41:32.845Z,100.00
2022-10-17T06:44:40.647Z,100.00
2022-10-17T06:47:49.021Z,100.00
2022-10-17T06:50:51.582Z,100.00
2022-10-17T06:53:54.306Z,100.00
2022-10-17T06:56:57.076Z,100.00
2022-10-17T07:00:00.676Z,100.00
2022-10-17T07:03:05.714Z,99.88
2022-10-17T07:06:08.105Z,96.68
2022-10-17T07:09:12.924Z,98.98
2022-10-17T07:12:15.608Z,94.70
2022-10-17T07:15:20.033Z,96.12
2022-10-17T07:18:22.599Z,91.25
2022-10-17T07:21:26.216Z,87.56
2022-10-17T07:24:28.301Z,87.13
2022-10-17T07:27:30.706Z,85.70
2022-10-17T07:30:33.799Z,85.37
2022-10-17T07:33:36.460Z,83.02
2022-10-17T07:36:39.220Z,78.95
2022-10-17T07:39:41.286Z,81.49
2022-10-17T07:42:43.784Z,77.22
2022-10-17T07:45:46.765Z,78.57
2022-10-17T07:48:53.237Z,76.38
2022-10-17T07:51:55.930Z,79.58
2022-10-17T07:54:58.390Z,80.28
2022-10-17T07:58:00.626Z,73.54
2022-10-17T08:01:04.117Z,74.62
2022-10-17T08:04:07.995Z,73.70
2022-10-17T08:07:20.648Z,74.26
2022-10-17T08:10:27.984Z,75.80
2022-10-17T08:13:30.361Z,72.67
2022-10-17T08:16:32.907Z,73.12
2022-10-17T08:19:42.372Z,72.93
2022-10-17T08:22:51.551Z,72.08
2022-10-17T08:25:55.111Z,71.24
2022-10-17T08:28:59.031Z,73.81
2022-10-17T08:32:02.410Z,72.19
2022-10-17T08:35:16.883Z,71.45
2022-10-17T08:38:21.033Z,67.56
2022-10-17T08:41:33.564Z,68.22
2022-10-17T08:44:44.919Z,69.71
2022-10-17T08:47:51.580Z,69.19
2022-10-17T08:51:13.954Z,69.77
2022-10-17T08:54:54.812Z,66.80
2022-10-17T08:58:03.800Z,67.47
2022-10-17T09:01:25.412Z,65.26
2022-10-17T09:04:46.321Z,65.06
2022-10-17T09:08:07.446Z,65.64
2022-10-17T09:11:23.315Z,66.52
2022-10-17T09:14:46.812Z,64.43
2022-10-17T09:17:55.103Z,64.17
2022-10-17T09:25:02.489Z,62.10
2022-10-17T09:28:13.857Z,62.67
2022-10-17T09:31:25.256Z,64.89
2022-10-17T09:34:30.468Z,62.06
2022-10-17T09:37:32.936Z,61.19
2022-10-17T09:40:35.746Z,59.02
2022-10-17T09:43:41.689Z,58.74
2022-10-17T09:46:58.848Z,61.56
2022-10-17T09:50:03.080Z,57.40
2022-10-17T09:53:19.736Z,55.87
2022-10-17T09:56:22.381Z,57.54
2022-10-17T09:59:43.836Z,55.10
2022-10-17T10:02:50.063Z,57.15
2022-10-17T10:06:18.170Z,54.70
2022-10-17T10:09:23.640Z,54.66
2022-10-17T10:12:28.102Z,54.07
2022-10-17T10:15:36.480Z,53.86
2022-10-17T10:18:43.898Z,53.88
2022-10-17T10:22:04.229Z,53.62
2022-10-17T10:25:08.013Z,50.78
2022-10-17T10:28:20.899Z,52.70
2022-10-17T10:31:27.582Z,50.22
2022-10-17T10:34:41.621Z,50.40
2022-10-17T10:37:46.847Z,49.82
2022-10-17T10:40:54.671Z,49.49
2022-10-17T10:43:57.812Z,51.01
2022-10-17T10:47:08.155Z,49.40
2022-10-17T10:50:25.042Z,49.52
2022-10-17T10:53:34.208Z,49.89
2022-10-17T10:56:44.362Z,46.83
2022-10-17T11:00:10.051Z,47.11
2022-10-17T11:03:22.901Z,49.33
2022-10-17T11:06:29.429Z,47.07
2022-10-17T11:09:41.843Z,47.35
2022-10-17T11:16:06.128Z,47.71
2022-10-17T11:19:17.860Z,48.58
2022-10-17T11:22:34.191Z,47.55
2022-10-17T11:25:40.283Z,48.08
2022-10-17T11:28:47.167Z,47.66
2022-10-17T11:31:51.758Z,50.04
2022-10-17T11:34:59.243Z,48.26
2022-10-17T11:38:13.697Z,49.14
2022-10-17T11:41:29.757Z,47.44
2022-10-17T11:44:36.491Z,47.95
2022-10-17T11:47:40.341Z,47.16
2022-10-17T11:54:22.229Z,48.15
2022-10-17T11:57:27.589Z,46.17
2022-10-17T12:00:40.863Z,46.39
2022-10-17T12:04:46.274Z,46.35
2022-10-17T12:07:53.348Z,44.78
2022-10-17T12:11:02.198Z,45.69
2022-10-17T12:14:26.730Z,44.94
2022-10-17T12:17:39.575Z,44.66
2022-10-17T12:20:56.003Z,45.38
2022-10-17T12:23:58.237Z,45.71
2022-10-17T12:27:19.429Z,45.46
2022-10-17T12:30:24.624Z,46.11
2022-10-17T12:33:47.832Z,45.88
2022-10-17T12:36:53.804Z,45.40
2022-10-17T12:39:57.580Z,44.68
2022-10-17T12:43:04.000Z,46.11
2022-10-17T12:46:08.527Z,45.02
2022-10-17T12:49:40.114Z,45.16
2022-10-17T12:52:42.419Z,46.23
2022-10-17T12:55:45.608Z,45.56
2022-10-17T12:58:52.858Z,43.73
2022-10-17T13:01:58.415Z,44.46
2022-10-17T13:05:06.649Z,47.07
2022-10-17T13:08:15.974Z,47.37
2022-10-17T13:11:31.417Z,45.16
2022-10-17T13:14:36.183Z,45.83
2022-10-17T13:17:43.041Z,44.46
2022-10-17T13:20:54.505Z,45.04
2022-10-17T13:24:04.017Z,45.36
2022-10-17T13:27:21.932Z,45.61
2022-10-17T13:30:27.962Z,43.92
2022-10-17T13:33:40.820Z,46.34
2022-10-17T13:36:48.505Z,47.07
2022-10-17T13:39:58.098Z,45.64
2022-10-17T13:43:33.865Z,44.85
2022-10-17T13:46:39.920Z,45.80
2022-10-17T13:49:43.199Z,44.55
2022-10-17T13:53:05.370Z,45.07
2022-10-17T13:56:29.679Z,46.99
2022-10-17T13:59:51.718Z,46.58
2022-10-17T14:03:06.777Z,47.36
2022-10-17T14:06:15.528Z,45.32
2022-10-17T14:09:26.108Z,47.71
2022-10-17T14:12:33.665Z,46.00
2022-10-17T14:15:46.154Z,46.18
2022-10-17T14:18:50.242Z,47.12
2022-10-17T14:21:57.208Z,47.53
2022-10-17T14:25:02.763Z,47.54
2022-10-17T14:28:09.911Z,47.88
2022-10-17T14:31:25.956Z,49.51
2022-10-17T14:34:40.097Z,49.78
2022-10-17T14:37:47.182Z,49.71
2022-10-17T14:40:50.741Z,50.87
2022-10-17T14:43:57.792Z,51.72
2022-10-17T14:47:30.735Z,51.44
2022-10-17T14:54:05.444Z,53.08
2022-10-17T14:57:15.098Z,53.61
2022-10-17T15:00:18.615Z,53.45
2022-10-17T15:03:23.993Z,53.45
2022-10-17T15:06:35.298Z,53.76
2022-10-17T15:09:40.126Z,54.87
2022-10-17T15:12:58.793Z,55.29
2022-10-17T15:16:16.379Z,56.03
2022-10-17T15:19:24.617Z,56.33
2022-10-17T15:22:30.731Z,58.11
2022-10-17T15:25:36.140Z,57.82
2022-10-17T15:28:44.000Z,58.51
2022-10-17T15:31:51.949Z,58.73
2022-10-17T15:34:54.511Z,60.41
2022-10-17T15:37:57.041Z,61.33
2022-10-17T15:41:00.197Z,61.79
2022-10-17T15:44:04.350Z,62.92
2022-10-17T15:47:07.580Z,63.61
2022-10-17T15:50:16.270Z,64.59
2022-10-17T15:53:28.237Z,66.10
2022-10-17T15:56:32.630Z,66.95
2022-10-17T15:59:35.856Z,69.51
2022-10-17T16:02:38.751Z,73.05
2022-10-17T16:05:43.780Z,74.32
2022-10-17T16:08:47.491Z,75.98
2022-10-17T16:11:50.071Z,77.95
2022-10-17T16:14:56.849Z,78.10
2022-10-17T16:18:02.788Z,79.33
2022-10-17T16:21:10.430Z,80.62
2022-10-17T16:24:14.142Z,83.11
2022-10-17T16:27:17.432Z,84.47
2022-10-17T16:33:26.092Z,86.63
2022-10-17T16:36:29.560Z,88.00
2022-10-17T16:39:40.762Z,87.54
2022-10-17T16:42:44.623Z,88.51
2022-10-17T16:45:47.035Z,88.69
2022-10-17T16:48:49.850Z,90.57
2022-10-17T16:51:56.424Z,92.29
2022-10-17T16:55:01.246Z,93.58
2022-10-17T16:58:03.682Z,94.28
2022-10-17T17:01:07.251Z,94.63
2022-10-17T17:04:10.338Z,94.92
2022-10-17T17:07:14.397Z,96.44
2022-10-17T17:10:21.948Z,96.46
2022-10-17T17:13:24.445Z,96.82
2022-10-17T17:16:36.726Z,97.54
2022-10-17T17:19:38.929Z,98.79
2022-10-17T17:22:41.450Z,98.27
2022-10-17T17:25:47.230Z,98.78
2022-10-17T17:28:49.920Z,99.57
2022-10-17T17:31:52.400Z,98.96
2022-10-17T17:34:55.852Z,99.48
2022-10-17T17:37:59.204Z,100.00
2022-10-17T17:41:01.695Z,100.00
2022-10-17T17:44:06.002Z,100.00
2022-10-17T17:47:08.482Z,100.00
2022-10-17T17:50:11.429Z,100.00
2022-10-17T17:53:16.596Z,100.00
2022-10-17T17:56:20.222Z,100.00
2022-10-17T17:59:23.409Z,100.00
2022-10-17T18:02:29.431Z,100.00
2022-10-17T18:05:31.928Z,100.00
2022-10-17T18:08:35.034Z,100.00
2022-10-17T18:11:37.451Z,100.00
2022-10-17T18:14:46.159Z,100.00
2022-10-17T18:17:51.310Z,100.00
2022-10-17T18:21:00.536Z,100.00
2022-10-17T18:24:08.696Z,100.00
2022-10-17T18:27:22.744Z,100.00
2022-10-17T18:30:28.043Z,100.00
2022-10-17T18:33:33.473Z,100.00
2022-10-17T18:36:35.940Z,100.00
2022-10-17T18:39:38.213Z,100.00
2022-10-17T18:42:45.009Z,100.00
2022-10-17T18:45:47.263Z,100.00
2022-10-17T18:48:51.089Z,100.00
2022-10-17T18:51:53.991Z,100.00
2022-10-17T18:54:58.946Z,100.00
2022-10-17T18:58:01.589Z,100.00
2022-10-17T19:01:05.191Z,100.00
2022-10-17T19:04:09.374Z,100.00
2022-10-17T19:07:12.037Z,100.00
2022-10-17T19:10:14.656Z,100.00
2022-10-17T19:13:21.857Z,100.00
2022-10-17T19:16:35.190Z,100.00
2022-10-17T19:19:43.789Z,100.00
2022-10-17T19:22:47.154Z,100.00
2022-10-17T19:25:50.105Z,100.00
2022-10-17T19:28:53.955Z,100.00
2022-10-17T19:35:03.822Z,100.00
2022-10-17T19:38:06.027Z,100.00
2022-10-17T19:41:11.474Z,100.00
2022-10-17T19:44:19.166Z,100.00
2022-10-17T19:50:45.941Z,100.00
2022-10-17T19:53:50.052Z,100.00
2022-10-17T19:56:53.247Z,100.00
2022-10-17T19:59:59.706Z,100.00
2022-10-17T20:03:03.849Z,100.00
2022-10-17T20:06:11.540Z,100.00
2022-10-17T20:09:17.400Z,100.00
2022-10-17T20:12:26.653Z,100.00
2022-10-17T20:15:35.465Z,100.00
2022-10-17T20:18:40.127Z,100.00
2022-10-17T20:21:43.175Z,100.00
2022-10-17T20:24:45.394Z,100.00
2022-10-17T20:27:48.445Z,100.00
2022-10-17T20:30:53.071Z,100.00
2022-10-17T20:33:56.400Z,100.00
2022-10-17T20:37:06.960Z,100.00
2022-10-17T20:40:34.983Z,100.00
2022-10-17T20:43:40.673Z,100.00
2022-10-17T20:47:01.192Z,100.00
2022-10-17T20:50:05.150Z,100.00
2022-10-17T20:53:35.594Z,100.00
2022-10-17T20:56:33.063Z,100.00
2022-10-17T20:59:36.458Z,100.00
2022-10-17T21:02:39.236Z,100.00
2022-10-17T21:05:42.466Z,100.00
2022-10-17T21:08:47.430Z,100.00
2022-10-17T21:11:55.961Z,100.00
2022-10-17T21:14:59.608Z,100.00
2022-10-17T21:18:05.182Z,100.00
2022-10-17T21:21:09.293Z,100.00
2022-10-17T21:24:14.238Z,100.00
2022-10-17T21:27:18.127Z,100.00
2022-10-17T21:30:21.436Z,100.00
2022-10-17T21:33:24.939Z,100.00
2022-10-17T21:36:27.880Z,100.00
2022-10-17T21:39:31.830Z,100.00
2022-10-17T21:42:39.264Z,100.00
2022-10-17T21:45:45.051Z,100.00
2022-10-17T21:48:49.031Z,100.00
2022-10-17T21:51:57.781Z,100.00
2022-10-17T21:55:00.536Z,100.00
2022-10-17T21:58:06.629Z,100.00
2022-10-17T22:01:12.847Z,100.00
2022-10-17T22:04:17.531Z,100.00
2022-10-17T22:07:25.419Z,100.00
2022-10-17T22:10:27.757Z,100.00
2022-10-17T22:13:34.017Z,100.00
2022-10-17T22:16:39.169Z,100.00
2022-10-17T22:19:51.625Z,100.00
2022-10-17T22:22:59.814Z,100.00
2022-10-17T22:26:04.156Z,100.00
2022-10-17T22:29:15.914Z,100.00
2022-10-17T22:32:25.006Z,100.00
2022-10-17T22:35:51.784Z,100.00
2022-10-17T22:38:54.283Z,100.00
2022-10-17T22:42:07.284Z,100.00
2022-10-17T22:45:21.689Z,100.00
2022-10-17T22:48:45.928Z,100.00
2022-10-17T22:51:51.223Z,100.00
2022-10-17T22:55:19.867Z,100.00
2022-10-17T23:01:43.140Z,100.00
2022-10-17T23:05:02.936Z,100.00
2022-10-17T23:08:22.986Z,100.00
2022-10-17T23:11:25.113Z,100.00
2022-10-17T23:14:40.120Z,100.00
2022-10-17T23:21:09.299Z,100.00
2022-10-17T23:24:17.776Z,100.00
2022-10-17T23:27:22.327Z,100.00
2022-10-17T23:30:31.214Z,100.00
2022-10-17T23:33:57.187Z,100.00
2022-10-17T23:37:20.697Z,100.00
2022-10-17T23:40:23.512Z,100.00
2022-10-17T23:43:42.638Z,100.00
2022-10-17T23:46:45.309Z,100.00
2022-10-17T23:49:57.120Z,100.00
2022-10-17T23:52:59.608Z,100.00
2022-10-17T23:56:20.230Z,100.00
2022-10-17T23:59:32.369Z,100.00
